Terminal Aerodrome Forecast
Issued by NWS

Home | Current Version | Previous Version | Text Only | Print | Product List | Glossary On
Versions: 1 2 3 4 5 6 7 8 9 10 11 12 13 14
000
FTUS46 KSEW 241758 AAA
TAFCLM
TAF AMD
KCLM 241758Z 2418/2518 31005KT P6SM SCT007 SCT045
      TEMPO 2418/2420 BKN007 BKN045
     FM242000 29008KT P6SM SCT030 BKN050
      TEMPO 2421/2501 -SHRA BKN030 BKN045
     FM250300 26006KT P6SM VCSH SCT030 BKN050=

USA.gov is the U.S. government's official web portal to all federal, state and local government web resources and services.